createdAt,value
2019-05-01T00:01:32.611Z,8.00
2019-05-01T00:04:23.350Z,7.90
2019-05-01T00:06:57.827Z,8.00
2019-05-01T00:09:32.470Z,8.00
2019-05-01T00:12:05.708Z,8.10
2019-05-01T00:14:39.028Z,8.20
2019-05-01T00:17:12.333Z,8.20
2019-05-01T00:19:45.267Z,8.10
2019-05-01T00:22:18.168Z,8.00
2019-05-01T00:24:52.068Z,8.00
2019-05-01T00:27:25.534Z,8.10
2019-05-01T00:29:58.489Z,8.10
2019-05-01T00:32:31.375Z,8.10
2019-05-01T00:35:04.208Z,8.00
2019-05-01T00:37:37.927Z,8.10
2019-05-01T00:40:10.967Z,8.10
2019-05-01T00:42:43.908Z,8.20
2019-05-01T00:45:16.947Z,8.10
2019-05-01T00:47:49.956Z,8.00
2019-05-01T00:50:22.975Z,8.00
2019-05-01T00:52:56.487Z,7.90
2019-05-01T00:55:38.107Z,8.00
2019-05-01T00:58:23.410Z,7.90
2019-05-01T01:01:14.227Z,7.70
2019-05-01T01:03:47.829Z,7.70
2019-05-01T01:06:21.388Z,7.70
2019-05-01T01:08:54.396Z,7.80
2019-05-01T01:11:27.427Z,7.90
2019-05-01T01:14:00.377Z,7.80
2019-05-01T01:16:33.591Z,7.70
2019-05-01T01:19:06.948Z,7.70
2019-05-01T01:21:40.097Z,7.70
2019-05-01T01:24:12.967Z,7.70
2019-05-01T01:26:46.076Z,7.70
2019-05-01T01:29:19.076Z,7.80
2019-05-01T01:31:52.248Z,7.80
2019-05-01T01:34:25.128Z,7.90
2019-05-01T01:36:58.236Z,7.90
2019-05-01T01:39:31.327Z,8.00
2019-05-01T01:42:04.227Z,8.20
2019-05-01T01:44:47.627Z,8.10
2019-05-01T01:47:21.268Z,8.00
2019-05-01T01:49:54.236Z,7.90
2019-05-01T01:52:27.576Z,7.80
2019-05-01T01:55:00.747Z,7.90
2019-05-01T01:57:33.627Z,7.90
2019-05-01T02:00:08.216Z,7.90
2019-05-01T02:02:43.388Z,8.10
2019-05-01T02:05:17.862Z,8.20
2019-05-01T02:07:50.948Z,8.00
2019-05-01T02:10:23.971Z,8.00
2019-05-01T02:12:57.188Z,8.00
2019-05-01T02:15:30.037Z,8.00
2019-05-01T02:18:03.137Z,8.00
2019-05-01T02:20:36.148Z,8.10
2019-05-01T02:23:09.135Z,8.00
2019-05-01T02:25:43.668Z,7.90
2019-05-01T02:28:27.148Z,7.90
2019-05-01T02:31:07.349Z,7.90
2019-05-01T02:33:41.772Z,7.90
2019-05-01T02:36:15.029Z,7.80
2019-05-01T02:38:47.989Z,7.80
2019-05-01T02:41:21.036Z,7.90
2019-05-01T02:43:53.959Z,7.80
2019-05-01T02:46:27.042Z,7.70
2019-05-01T02:49:00.258Z,7.70
2019-05-01T02:51:33.215Z,7.60
2019-05-01T02:54:06.168Z,7.80
2019-05-01T02:56:41.259Z,7.80
2019-05-01T02:59:14.502Z,7.90
2019-05-01T03:01:48.192Z,8.00
2019-05-01T03:04:21.363Z,8.00
2019-05-01T03:06:55.009Z,8.00
2019-05-01T03:09:28.310Z,7.90
2019-05-01T03:12:01.316Z,7.90
2019-05-01T03:14:34.295Z,7.90
2019-05-01T03:17:08.937Z,8.00
2019-05-01T03:19:46.949Z,8.00
2019-05-01T03:22:30.816Z,8.20
2019-05-01T03:25:03.679Z,8.20
2019-05-01T03:27:36.917Z,8.30
2019-05-01T03:30:09.872Z,8.40
2019-05-01T03:32:42.789Z,8.30
2019-05-01T03:35:15.677Z,8.20
2019-05-01T03:37:48.817Z,8.20
2019-05-01T03:40:21.607Z,8.20
2019-05-01T03:42:54.670Z,8.10
2019-05-01T03:45:27.930Z,8.00
2019-05-01T03:48:00.890Z,8.40
2019-05-01T03:50:33.777Z,8.50
2019-05-01T03:53:07.189Z,8.40
2019-05-01T03:55:40.110Z,8.40
2019-05-01T03:58:13.049Z,8.40
2019-05-01T04:01:00.558Z,8.40
2019-05-01T04:03:43.989Z,8.40
2019-05-01T04:06:17.369Z,8.40
2019-05-01T04:08:50.276Z,8.20
2019-05-01T04:11:23.776Z,8.00
2019-05-01T04:13:56.629Z,7.90
2019-05-01T04:16:30.474Z,8.00
2019-05-01T04:19:03.414Z,7.90
2019-05-01T04:21:38.190Z,8.00
2019-05-01T04:24:11.029Z,8.00
2019-05-01T04:26:44.489Z,7.90
2019-05-01T04:29:17.170Z,8.00
2019-05-01T04:31:57.790Z,8.20
2019-05-01T04:34:44.728Z,8.20
2019-05-01T04:37:19.090Z,8.30
2019-05-01T04:39:52.452Z,8.30
2019-05-01T04:42:25.757Z,8.30
2019-05-01T04:44:59.202Z,8.40
2019-05-01T04:47:32.409Z,8.40
2019-05-01T04:50:05.329Z,8.50
2019-05-01T04:52:39.002Z,8.60
2019-05-01T04:55:12.256Z,8.70
2019-05-01T04:57:45.128Z,8.60
2019-05-01T05:00:18.223Z,8.80
2019-05-01T05:03:04.025Z,8.70
2019-05-01T05:05:27.307Z,8.60
2019-05-01T05:08:00.268Z,8.60
2019-05-01T05:10:33.108Z,8.60
2019-05-01T05:13:10.855Z,8.60
2019-05-01T05:15:45.551Z,8.60
2019-05-01T05:18:18.367Z,8.60
2019-05-01T05:20:51.428Z,8.60
2019-05-01T05:23:26.828Z,8.60
2019-05-01T05:25:59.947Z,8.60
2019-05-01T05:28:32.928Z,8.70
2019-05-01T05:31:05.868Z,8.70
2019-05-01T05:33:38.849Z,8.70
2019-05-01T05:36:11.675Z,8.80
2019-05-01T05:38:54.928Z,8.80
2019-05-01T05:41:31.028Z,8.90
2019-05-01T05:44:04.061Z,9.00
2019-05-01T05:46:36.948Z,8.90
2019-05-01T05:49:09.808Z,8.80
2019-05-01T05:51:44.417Z,8.80
2019-05-01T05:54:32.128Z,9.00
2019-05-01T05:57:15.728Z,9.10
2019-05-01T06:00:06.512Z,9.20
2019-05-01T06:02:44.007Z,9.20
2019-05-01T06:05:34.982Z,9.20
2019-05-01T06:08:15.567Z,9.00
2019-05-01T06:10:58.401Z,9.10
2019-05-01T06:13:52.586Z,9.20
2019-05-01T06:16:24.567Z,9.30
2019-05-01T06:19:09.728Z,9.40
2019-05-01T06:21:58.967Z,9.40
2019-05-01T06:24:51.607Z,9.40
2019-05-01T06:27:24.668Z,9.50
2019-05-01T06:29:57.477Z,9.60
2019-05-01T06:32:33.541Z,9.80
2019-05-01T06:35:05.039Z,9.90
2019-05-01T06:37:37.928Z,9.90
2019-05-01T06:40:12.330Z,10.00
2019-05-01T06:42:45.647Z,9.90
2019-05-01T06:45:20.753Z,9.90
2019-05-01T06:47:55.368Z,9.90
2019-05-01T06:50:36.759Z,10.00
2019-05-01T06:53:07.391Z,10.10
2019-05-01T06:55:40.310Z,10.30
2019-05-01T06:58:14.840Z,10.50
2019-05-01T07:00:47.950Z,10.60
2019-05-01T07:03:21.033Z,10.80
2019-05-01T07:05:55.982Z,11.00
2019-05-01T07:08:29.485Z,11.10
2019-05-01T07:11:03.811Z,11.20
2019-05-01T07:13:40.075Z,11.20
2019-05-01T07:16:13.116Z,11.30
2019-05-01T07:18:46.007Z,11.30
2019-05-01T07:21:22.768Z,11.30
2019-05-01T07:23:53.529Z,11.40
2019-05-01T07:26:26.368Z,11.50
2019-05-01T07:29:06.045Z,11.70
2019-05-01T07:31:38.976Z,11.70
2019-05-01T07:34:16.773Z,11.90
2019-05-01T07:36:50.248Z,12.20
2019-05-01T07:39:21.107Z,12.50
2019-05-01T07:41:56.028Z,12.30
2019-05-01T07:44:33.782Z,12.40
2019-05-01T07:47:15.301Z,12.60
2019-05-01T07:49:52.730Z,12.80
2019-05-01T07:52:23.417Z,13.10
2019-05-01T07:54:56.624Z,13.10
2019-05-01T07:57:29.413Z,13.30
2019-05-01T08:00:08.129Z,13.60
2019-05-01T08:02:38.516Z,13.70
2019-05-01T08:05:11.778Z,13.80
2019-05-01T08:07:45.116Z,14.40
2019-05-01T08:10:20.960Z,14.60
2019-05-01T08:12:55.500Z,14.90
2019-05-01T08:15:32.303Z,15.10
2019-05-01T08:18:15.375Z,15.10
2019-05-01T08:20:56.310Z,14.90
2019-05-01T08:23:29.450Z,14.80
2019-05-01T08:26:07.170Z,14.80
2019-05-01T08:28:53.937Z,14.90
2019-05-01T08:31:37.890Z,15.10
2019-05-01T08:34:14.028Z,15.20
2019-05-01T08:36:48.366Z,15.30
2019-05-01T08:39:21.709Z,15.30
2019-05-01T08:41:54.616Z,15.50
2019-05-01T08:44:29.908Z,15.90
2019-05-01T08:47:03.568Z,15.90
2019-05-01T08:49:36.228Z,15.70
2019-05-01T08:52:13.653Z,15.90
2019-05-01T08:54:44.509Z,16.00
2019-05-01T08:57:17.667Z,15.90
2019-05-01T08:59:51.037Z,15.70
2019-05-01T09:02:24.815Z,15.60
2019-05-01T09:05:02.516Z,16.00
2019-05-01T09:07:32.664Z,15.80
2019-05-01T09:10:08.797Z,16.00
2019-05-01T09:12:42.759Z,16.20
2019-05-01T09:15:17.068Z,16.30
2019-05-01T09:17:49.927Z,16.10
2019-05-01T09:20:23.788Z,16.10
2019-05-01T09:22:57.890Z,15.70
2019-05-01T09:25:35.237Z,15.40
2019-05-01T09:28:09.535Z,15.50
2019-05-01T09:30:44.293Z,15.50
2019-05-01T09:33:17.411Z,16.00
2019-05-01T09:35:50.691Z,16.20
2019-05-01T09:38:24.592Z,16.40
2019-05-01T09:40:57.499Z,16.40
2019-05-01T09:43:31.006Z,16.60
2019-05-01T09:46:05.112Z,16.40
2019-05-01T09:48:38.654Z,16.50
2019-05-01T09:51:19.172Z,16.60
2019-05-01T09:54:05.643Z,16.70
2019-05-01T09:56:38.445Z,16.60
2019-05-01T09:59:12.641Z,16.80
2019-05-01T10:01:46.478Z,16.80
2019-05-01T10:04:19.528Z,16.80
2019-05-01T10:06:54.142Z,17.10
2019-05-01T10:09:30.296Z,17.00
2019-05-01T10:12:03.129Z,16.80
2019-05-01T10:14:37.379Z,17.20
2019-05-01T10:17:13.436Z,17.30
2019-05-01T10:19:45.428Z,17.30
2019-05-01T10:22:18.968Z,17.50
2019-05-01T10:24:51.868Z,17.70
2019-05-01T10:27:26.389Z,17.70
2019-05-01T10:30:03.128Z,17.10
2019-05-01T10:32:44.170Z,17.40
2019-05-01T10:35:23.251Z,17.80
2019-05-01T10:37:57.310Z,17.90
2019-05-01T10:40:32.371Z,18.00
2019-05-01T10:43:04.950Z,18.00
2019-05-01T10:45:37.828Z,17.80
2019-05-01T10:48:12.788Z,18.10
2019-05-01T10:50:45.728Z,18.50
2019-05-01T10:53:18.628Z,18.80
2019-05-01T10:55:51.976Z,19.00
2019-05-01T10:58:24.978Z,18.80
2019-05-01T11:01:02.311Z,18.90
2019-05-01T11:03:35.509Z,18.80
2019-05-01T11:06:08.887Z,18.80
2019-05-01T11:08:41.967Z,19.10
2019-05-01T11:11:15.111Z,19.10
2019-05-01T11:13:48.188Z,18.90
2019-05-01T11:16:21.209Z,18.80
2019-05-01T11:18:54.488Z,18.90
2019-05-01T11:21:27.748Z,19.00
2019-05-01T11:24:01.128Z,18.70
2019-05-01T11:26:34.909Z,18.70
2019-05-01T11:29:07.868Z,18.90
2019-05-01T11:31:58.868Z,19.00
2019-05-01T11:34:37.628Z,19.20
2019-05-01T11:37:25.428Z,19.20
2019-05-01T11:40:00.308Z,19.20
2019-05-01T11:42:34.388Z,19.40
2019-05-01T11:45:07.328Z,19.50
2019-05-01T11:47:40.347Z,19.50
2019-05-01T11:50:13.307Z,19.20
2019-05-01T11:52:46.353Z,18.80
2019-05-01T11:55:19.274Z,18.80
2019-05-01T11:57:52.315Z,18.90
2019-05-01T12:00:26.235Z,19.00
2019-05-01T12:02:59.297Z,19.20
2019-05-01T12:05:32.128Z,19.00
2019-05-01T12:08:05.051Z,19.10
2019-05-01T12:10:38.053Z,19.40
2019-05-01T12:13:10.971Z,19.60
2019-05-01T12:15:45.599Z,19.20
2019-05-01T12:18:18.792Z,19.10
2019-05-01T12:20:51.889Z,19.20
2019-05-01T12:23:25.108Z,19.10
2019-05-01T12:25:58.334Z,19.10
2019-05-01T12:28:31.309Z,18.90
2019-05-01T12:31:04.352Z,18.60
2019-05-01T12:33:37.368Z,18.80
2019-05-01T12:36:11.187Z,19.00
2019-05-01T12:38:44.311Z,19.20
2019-05-01T12:41:31.371Z,19.10
2019-05-01T12:44:04.049Z,19.10
2019-05-01T12:46:53.658Z,19.10
2019-05-01T12:49:26.668Z,19.10
2019-05-01T12:52:10.337Z,19.40
2019-05-01T12:54:51.852Z,19.60
2019-05-01T12:57:24.653Z,19.50
2019-05-01T13:00:08.098Z,19.30
2019-05-01T13:02:32.312Z,19.20
2019-05-01T13:05:05.252Z,19.10
2019-05-01T13:07:38.291Z,19.40
2019-05-01T13:10:11.294Z,19.50
2019-05-01T13:12:44.472Z,19.70
2019-05-01T13:15:17.662Z,19.60
2019-05-01T13:17:50.852Z,19.70
2019-05-01T13:20:24.250Z,19.60
2019-05-01T13:22:57.490Z,19.40
2019-05-01T13:25:31.111Z,19.60
2019-05-01T13:28:22.032Z,19.50
2019-05-01T13:30:56.429Z,19.20
2019-05-01T13:33:29.309Z,18.40
2019-05-01T13:36:02.831Z,17.90
2019-05-01T13:38:35.930Z,18.20
2019-05-01T13:41:09.258Z,18.70
2019-05-01T13:43:42.529Z,19.00
2019-05-01T13:46:15.710Z,19.10
2019-05-01T13:48:49.218Z,19.10
2019-05-01T13:51:22.230Z,19.10
2019-05-01T13:53:56.130Z,19.10
2019-05-01T13:56:29.797Z,19.20
2019-05-01T13:59:02.661Z,19.30
2019-05-01T14:01:36.157Z,19.20
2019-05-01T14:04:10.651Z,19.40
2019-05-01T14:06:45.432Z,19.30
2019-05-01T14:09:20.109Z,19.20
2019-05-01T14:11:53.629Z,18.90
2019-05-01T14:14:26.558Z,19.00
2019-05-01T14:16:59.732Z,19.00
2019-05-01T14:19:33.652Z,19.20
2019-05-01T14:22:24.690Z,19.20
2019-05-01T14:24:59.192Z,19.20
2019-05-01T14:27:32.170Z,19.10
2019-05-01T14:30:05.230Z,19.10
2019-05-01T14:32:38.512Z,18.90
2019-05-01T14:35:11.812Z,18.80
2019-05-01T14:37:44.790Z,18.80
2019-05-01T14:40:18.577Z,18.70
2019-05-01T14:42:51.509Z,18.40
2019-05-01T14:45:25.578Z,18.10
2019-05-01T14:48:00.046Z,18.00
2019-05-01T14:50:32.890Z,17.90
2019-05-01T14:53:05.872Z,18.20
2019-05-01T14:55:38.932Z,18.50
2019-05-01T14:58:12.330Z,18.80
2019-05-01T15:00:45.190Z,18.80
2019-05-01T15:03:18.274Z,18.50
2019-05-01T15:05:51.289Z,18.40
2019-05-01T15:08:26.289Z,18.20
2019-05-01T15:10:59.267Z,18.20
2019-05-01T15:13:49.211Z,18.00
2019-05-01T15:16:23.812Z,18.10
2019-05-01T15:19:05.953Z,17.80
2019-05-01T15:21:39.211Z,17.90
2019-05-01T15:24:12.195Z,17.90
2019-05-01T15:26:47.143Z,17.60
2019-05-01T15:29:19.980Z,17.50
2019-05-01T15:31:52.830Z,17.10
2019-05-01T15:34:25.891Z,16.80
2019-05-01T15:36:59.371Z,16.80
2019-05-01T15:39:36.890Z,16.50
2019-05-01T15:42:11.571Z,16.10
2019-05-01T15:44:47.780Z,16.00
2019-05-01T15:47:19.831Z,15.80
2019-05-01T15:49:52.837Z,15.70
2019-05-01T15:52:25.691Z,15.50
2019-05-01T15:54:58.671Z,15.50
2019-05-01T15:57:32.111Z,15.40
2019-05-01T16:00:05.175Z,15.50
2019-05-01T16:02:38.012Z,15.30
2019-05-01T16:05:11.368Z,15.40
2019-05-01T16:07:44.691Z,15.40
2019-05-01T16:10:19.268Z,15.50
2019-05-01T16:16:14.587Z,15.60
2019-05-01T16:18:47.551Z,15.60
2019-05-01T16:21:20.848Z,15.50
2019-05-01T16:23:53.908Z,15.60
2019-05-01T16:26:26.708Z,15.90
2019-05-01T16:28:59.868Z,16.00
2019-05-01T16:31:32.789Z,16.00
2019-05-01T16:34:05.695Z,16.10
2019-05-01T16:36:41.429Z,16.00
2019-05-01T16:39:15.010Z,15.80
2019-05-01T16:41:49.727Z,15.50
2019-05-01T16:44:22.649Z,15.30
2019-05-01T16:46:56.148Z,15.10
2019-05-01T16:50:07.868Z,15.00
2019-05-01T16:52:41.470Z,14.90
2019-05-01T16:55:15.068Z,14.80
2019-05-01T16:57:47.868Z,14.80
2019-05-01T17:00:21.788Z,14.70
2019-05-01T17:02:56.428Z,14.80
2019-05-01T17:05:50.687Z,14.80
2019-05-01T17:08:36.444Z,14.80
2019-05-01T17:11:10.680Z,14.60
2019-05-01T17:13:43.848Z,14.60
2019-05-01T17:16:17.114Z,14.70
2019-05-01T17:18:50.111Z,14.60
2019-05-01T17:21:23.189Z,14.50
2019-05-01T17:23:56.088Z,14.50
2019-05-01T17:26:28.970Z,14.60
2019-05-01T17:29:01.955Z,14.60
2019-05-01T17:31:35.068Z,14.50
2019-05-01T17:34:09.690Z,14.50
2019-05-01T17:36:42.952Z,14.40
2019-05-01T17:39:18.148Z,14.20
2019-05-01T17:41:51.427Z,14.20
2019-05-01T17:44:25.410Z,14.20
2019-05-01T17:46:59.552Z,14.10
2019-05-01T17:49:32.547Z,14.00
2019-05-01T17:52:07.307Z,14.00
2019-05-01T17:54:40.327Z,13.90
2019-05-01T17:57:13.288Z,13.90
2019-05-01T17:59:47.828Z,13.90
2019-05-01T18:02:20.436Z,13.70
2019-05-01T18:05:12.987Z,13.60
2019-05-01T18:07:45.855Z,13.50
2019-05-01T18:10:18.727Z,13.40
2019-05-01T18:12:51.875Z,13.30
2019-05-01T18:15:24.969Z,13.20
2019-05-01T18:17:57.748Z,13.20
2019-05-01T18:20:31.009Z,13.10
2019-05-01T18:23:24.275Z,13.00
2019-05-01T18:26:08.704Z,13.00
2019-05-01T18:28:42.448Z,13.00
2019-05-01T18:31:17.428Z,12.90
2019-05-01T18:33:50.947Z,12.90
2019-05-01T18:36:25.776Z,12.90
2019-05-01T18:39:16.574Z,12.80
2019-05-01T18:41:50.596Z,12.70
2019-05-01T18:44:23.438Z,12.70
2019-05-01T18:46:56.732Z,12.50
2019-05-01T18:49:29.564Z,12.50
2019-05-01T18:52:02.587Z,12.50
2019-05-01T18:54:36.460Z,12.40
2019-05-01T18:57:09.451Z,12.40
2019-05-01T18:59:42.971Z,12.30
2019-05-01T19:02:15.829Z,12.40
2019-05-01T19:04:49.810Z,12.20
2019-05-01T19:07:22.848Z,12.30
2019-05-01T19:09:55.889Z,12.20
2019-05-01T19:12:31.220Z,12.00
2019-05-01T19:15:05.447Z,12.00
2019-05-01T19:17:38.630Z,12.00
2019-05-01T19:20:11.918Z,11.90
2019-05-01T19:22:45.785Z,11.80
2019-05-01T19:25:18.850Z,11.80
2019-05-01T19:27:51.791Z,11.90
2019-05-01T19:30:24.712Z,11.80
2019-05-01T19:32:57.570Z,11.90
2019-05-01T19:35:34.112Z,11.80
2019-05-01T19:38:05.121Z,11.90
2019-05-01T19:40:37.933Z,12.10
2019-05-01T19:43:10.970Z,12.20
2019-05-01T19:45:43.950Z,12.20
2019-05-01T19:48:16.951Z,12.20
2019-05-01T19:50:49.945Z,12.20
2019-05-01T19:53:23.169Z,12.20
2019-05-01T19:55:55.997Z,12.20
2019-05-01T19:58:29.151Z,12.20
2019-05-01T20:01:04.592Z,12.10
2019-05-01T20:03:38.627Z,12.10
2019-05-01T20:06:11.971Z,12.10
2019-05-01T20:08:45.028Z,12.20
2019-05-01T20:11:17.850Z,12.40
2019-05-01T20:13:50.867Z,12.40
2019-05-01T20:16:23.910Z,12.30
2019-05-01T20:18:56.909Z,12.30
2019-05-01T20:21:29.782Z,12.20
2019-05-01T20:24:04.342Z,12.30
2019-05-01T20:26:37.190Z,12.30
2019-05-01T20:29:10.578Z,12.10
2019-05-01T20:31:45.801Z,12.20
2019-05-01T20:34:18.814Z,12.20
2019-05-01T20:36:51.617Z,12.20
2019-05-01T20:39:24.653Z,12.10
2019-05-01T20:41:58.049Z,12.10
2019-05-01T20:44:31.728Z,12.10
2019-05-01T20:47:04.539Z,12.20
2019-05-01T20:49:41.334Z,12.20
2019-05-01T20:52:12.708Z,12.20
2019-05-01T20:54:45.648Z,12.20
2019-05-01T20:57:21.081Z,12.10
2019-05-01T20:59:54.790Z,12.00
2019-05-01T21:02:27.990Z,11.90
2019-05-01T21:05:18.768Z,11.90
2019-05-01T21:08:06.575Z,11.90
2019-05-01T21:10:50.457Z,11.80
2019-05-01T21:13:24.946Z,11.80
2019-05-01T21:16:01.633Z,11.90
2019-05-01T21:18:32.427Z,12.00
2019-05-01T21:21:05.427Z,12.20
2019-05-01T21:23:38.441Z,12.30
2019-05-01T21:26:11.435Z,12.30
2019-05-01T21:28:44.974Z,12.10
2019-05-01T21:31:18.296Z,12.00
2019-05-01T21:33:51.187Z,12.10
2019-05-01T21:36:24.649Z,12.10
2019-05-01T21:38:57.636Z,12.10
2019-05-01T21:41:32.741Z,12.10
2019-05-01T21:44:06.828Z,12.00
2019-05-01T21:46:39.730Z,12.00
2019-05-01T21:49:13.146Z,12.00
2019-05-01T21:51:47.068Z,11.90
2019-05-01T21:54:20.670Z,12.00
2019-05-01T21:56:54.588Z,12.00
2019-05-01T21:59:27.636Z,12.00
2019-05-01T22:02:00.627Z,12.10
2019-05-01T22:04:33.868Z,12.10
2019-05-01T22:07:08.107Z,12.00
2019-05-01T22:09:45.743Z,12.00
2019-05-01T22:12:15.995Z,11.90
2019-05-01T22:14:56.717Z,11.80
2019-05-01T22:17:32.248Z,11.70
2019-05-01T22:20:07.039Z,11.70
2019-05-01T22:22:47.768Z,11.70
2019-05-01T22:25:22.294Z,11.70
2019-05-01T22:27:56.767Z,11.60
2019-05-01T22:30:31.527Z,11.60
2019-05-01T22:33:04.468Z,11.60
2019-05-01T22:35:39.128Z,11.50
2019-05-01T22:38:12.540Z,11.60
2019-05-01T22:41:06.487Z,11.60
2019-05-01T22:43:37.208Z,11.50
2019-05-01T22:46:11.847Z,11.40
2019-05-01T22:48:44.688Z,11.40
2019-05-01T22:51:19.276Z,11.40
2019-05-01T22:53:55.295Z,11.30
2019-05-01T22:56:29.395Z,11.20
2019-05-01T22:59:02.390Z,11.20
2019-05-01T23:01:35.836Z,11.30
2019-05-01T23:04:12.191Z,11.40
2019-05-01T23:06:43.515Z,11.30
2019-05-01T23:09:18.009Z,11.30
2019-05-01T23:11:50.848Z,11.30
2019-05-01T23:14:25.275Z,11.30
2019-05-01T23:17:16.147Z,11.20
2019-05-01T23:19:49.148Z,11.20
2019-05-01T23:22:23.715Z,11.20
2019-05-01T23:24:57.208Z,11.10
2019-05-01T23:27:30.779Z,11.00
2019-05-01T23:30:05.110Z,10.90
2019-05-01T23:32:38.396Z,11.00
2019-05-01T23:35:11.422Z,10.90
2019-05-01T23:37:44.535Z,10.90
2019-05-01T23:40:17.448Z,10.80
2019-05-01T23:42:53.671Z,10.80
2019-05-01T23:45:24.827Z,10.70
2019-05-01T23:47:57.788Z,10.80
2019-05-01T23:50:31.047Z,10.70
2019-05-01T23:53:04.009Z,10.70
2019-05-01T23:55:37.273Z,10.70
2019-05-01T23:58:10.413Z,10.70
